sensor_id;sensor_type;location;lat;lon;timestamp;pressure;altitude;pressure_sealevel;temperature;humidity
2681;BME280;1350;42.134;24.708;2022-11-15T00:01:55;100152.38;;;6.95;100.00
2681;BME280;1350;42.134;24.708;2022-11-15T00:04:23;100151.50;;;6.94;100.00
2681;BME280;1350;42.134;24.708;2022-11-15T00:06:50;100155.34;;;6.82;100.00
2681;BME280;1350;42.134;24.708;2022-11-15T00:09:17;100162.13;;;6.91;100.00
2681;BME280;1350;42.134;24.708;2022-11-15T00:11:43;100155.31;;;6.84;100.00
2681;BME280;1350;42.134;24.708;2022-11-15T00:14:10;100154.22;;;6.91;100.00
2681;BME280;1350;42.134;24.708;2022-11-15T00:16:37;100158.69;;;6.87;100.00
2681;BME280;1350;42.134;24.708;2022-11-15T00:19:03;100157.19;;;6.79;100.00
2681;BME280;1350;42.134;24.708;2022-11-15T00:21:31;100157.09;;;6.82;100.00
2681;BME280;1350;42.134;24.708;2022-11-15T00:23:58;100158.78;;;6.84;100.00
2681;BME280;1350;42.134;24.708;2022-11-15T00:26:25;100157.19;;;6.79;100.00
2681;BME280;1350;42.134;24.708;2022-11-15T00:28:52;100161.47;;;6.83;100.00
2681;BME280;1350;42.134;24.708;2022-11-15T00:31:18;100147.28;;;6.88;100.00
2681;BME280;1350;42.134;24.708;2022-11-15T00:33:45;100153.47;;;6.86;100.00
2681;BME280;1350;42.134;24.708;2022-11-15T00:36:12;100153.38;;;6.89;100.00
2681;BME280;1350;42.134;24.708;2022-11-15T00:38:40;100149.06;;;6.86;100.00
2681;BME280;1350;42.134;24.708;2022-11-15T00:41:07;100149.69;;;6.96;100.00
2681;BME280;1350;42.134;24.708;2022-11-15T00:43:34;100153.13;;;6.98;100.00
2681;BME280;1350;42.134;24.708;2022-11-15T00:46:00;100142.16;;;7.13;100.00
2681;BME280;1350;42.134;24.708;2022-11-15T00:48:28;100143.41;;;7.29;100.00
2681;BME280;1350;42.134;24.708;2022-11-15T00:50:55;100141.78;;;7.25;100.00
2681;BME280;1350;42.134;24.708;2022-11-15T00:53:21;100140.47;;;7.38;100.00
2681;BME280;1350;42.134;24.708;2022-11-15T00:55:50;100147.25;;;7.19;100.00
2681;BME280;1350;42.134;24.708;2022-11-15T00:58:16;100150.63;;;7.23;100.00
2681;BME280;1350;42.134;24.708;2022-11-15T01:00:43;100141.63;;;7.30;100.00
2681;BME280;1350;42.134;24.708;2022-11-15T01:03:10;100145.16;;;7.01;100.00
2681;BME280;1350;42.134;24.708;2022-11-15T01:05:37;100139.22;;;6.93;100.00
2681;BME280;1350;42.134;24.708;2022-11-15T01:08:04;100142.00;;;7.18;100.00
2681;BME280;1350;42.134;24.708;2022-11-15T01:10:30;100139.41;;;7.16;100.00
2681;BME280;1350;42.134;24.708;2022-11-15T01:12:59;100138.59;;;7.14;100.00
2681;BME280;1350;42.134;24.708;2022-11-15T01:15:25;100133.13;;;7.20;100.00
2681;BME280;1350;42.134;24.708;2022-11-15T01:17:52;100138.78;;;7.37;100.00
2681;BME280;1350;42.134;24.708;2022-11-15T01:20:20;100134.66;;;7.29;100.00
2681;BME280;1350;42.134;24.708;2022-11-15T01:22:46;100134.41;;;7.36;100.00
2681;BME280;1350;42.134;24.708;2022-11-15T01:25:13;100128.75;;;7.48;100.00
2681;BME280;1350;42.134;24.708;2022-11-15T01:27:40;100128.66;;;7.51;100.00
2681;BME280;1350;42.134;24.708;2022-11-15T01:30:09;100121.13;;;7.67;100.00
2681;BME280;1350;42.134;24.708;2022-11-15T01:32:36;100129.72;;;7.73;100.00
2681;BME280;1350;42.134;24.708;2022-11-15T01:35:03;100132.63;;;7.64;100.00
2681;BME280;1350;42.134;24.708;2022-11-15T01:37:30;100120.66;;;7.54;100.00
2681;BME280;1350;42.134;24.708;2022-11-15T01:39:57;100123.88;;;7.36;100.00
2681;BME280;1350;42.134;24.708;2022-11-15T01:42:23;100115.06;;;7.36;100.00
2681;BME280;1350;42.134;24.708;2022-11-15T01:44:51;100119.38;;;7.38;100.00
2681;BME280;1350;42.134;24.708;2022-11-15T01:47:23;100114.94;;;7.40;100.00
2681;BME280;1350;42.134;24.708;2022-11-15T01:49:55;100114.34;;;7.58;100.00
2681;BME280;1350;42.134;24.708;2022-11-15T01:52:26;100105.50;;;7.61;100.00
2681;BME280;1350;42.134;24.708;2022-11-15T01:54:57;100110.13;;;7.80;100.00
2681;BME280;1350;42.134;24.708;2022-11-15T01:57:26;100113.47;;;7.85;100.00
2681;BME280;1350;42.134;24.708;2022-11-15T01:59:53;100107.94;;;7.93;100.00
2681;BME280;1350;42.134;24.708;2022-11-15T02:02:22;100109.81;;;7.89;100.00
2681;BME280;1350;42.134;24.708;2022-11-15T02:04:49;100116.16;;;7.84;100.00
2681;BME280;1350;42.134;24.708;2022-11-15T02:07:17;100118.03;;;7.80;100.00
2681;BME280;1350;42.134;24.708;2022-11-15T02:09:45;100120.25;;;7.66;100.00
2681;BME280;1350;42.134;24.708;2022-11-15T02:12:15;100113.16;;;7.68;100.00
2681;BME280;1350;42.134;24.708;2022-11-15T02:14:47;100114.81;;;7.71;100.00
2681;BME280;1350;42.134;24.708;2022-11-15T02:17:33;100112.41;;;7.91;100.00
2681;BME280;1350;42.134;24.708;2022-11-15T02:20:46;100102.00;;;7.86;100.00
2681;BME280;1350;42.134;24.708;2022-11-15T02:29:34;100105.28;;;8.19;100.00
2681;BME280;1350;42.134;24.708;2022-11-15T02:32:14;100110.44;;;8.23;100.00
2681;BME280;1350;42.134;24.708;2022-11-15T02:34:51;100111.63;;;8.13;100.00
2681;BME280;1350;42.134;24.708;2022-11-15T02:37:26;100104.00;;;8.04;100.00
2681;BME280;1350;42.134;24.708;2022-11-15T02:40:06;100102.25;;;8.05;100.00
2681;BME280;1350;42.134;24.708;2022-11-15T02:42:37;100100.47;;;8.05;100.00
2681;BME280;1350;42.134;24.708;2022-11-15T02:45:27;100100.59;;;8.02;100.00
2681;BME280;1350;42.134;24.708;2022-11-15T02:47:57;100095.31;;;8.02;100.00
2681;BME280;1350;42.134;24.708;2022-11-15T02:50:28;100096.81;;;8.09;100.00
2681;BME280;1350;42.134;24.708;2022-11-15T02:52:56;100090.88;;;8.29;100.00
2681;BME280;1350;42.134;24.708;2022-11-15T02:55:28;100086.13;;;8.38;100.00
2681;BME280;1350;42.134;24.708;2022-11-15T03:00:51;100087.28;;;8.31;100.00
2681;BME280;1350;42.134;24.708;2022-11-15T03:03:32;100088.44;;;8.47;100.00
2681;BME280;1350;42.134;24.708;2022-11-15T03:06:07;100097.06;;;8.52;100.00
2681;BME280;1350;42.134;24.708;2022-11-15T03:08:41;100092.56;;;8.56;100.00
2681;BME280;1350;42.134;24.708;2022-11-15T03:11:14;100093.50;;;8.53;100.00
2681;BME280;1350;42.134;24.708;2022-11-15T03:13:47;100091.56;;;8.58;100.00
2681;BME280;1350;42.134;24.708;2022-11-15T03:16:20;100096.91;;;8.57;100.00
2681;BME280;1350;42.134;24.708;2022-11-15T03:18:53;100099.56;;;8.32;100.00
2681;BME280;1350;42.134;24.708;2022-11-15T03:21:22;100098.31;;;8.16;100.00
2681;BME280;1350;42.134;24.708;2022-11-15T03:23:51;100099.34;;;8.12;100.00
2681;BME280;1350;42.134;24.708;2022-11-15T03:26:21;100096.38;;;8.21;100.00
2681;BME280;1350;42.134;24.708;2022-11-15T03:28:53;100089.09;;;8.29;100.00
2681;BME280;1350;42.134;24.708;2022-11-15T03:31:23;100087.22;;;8.33;100.00
2681;BME280;1350;42.134;24.708;2022-11-15T03:34:19;100086.28;;;8.34;100.00
2681;BME280;1350;42.134;24.708;2022-11-15T03:36:47;100079.63;;;8.48;100.00
2681;BME280;1350;42.134;24.708;2022-11-15T03:39:15;100083.00;;;8.52;100.00
2681;BME280;1350;42.134;24.708;2022-11-15T03:41:47;100078.16;;;8.40;100.00
2681;BME280;1350;42.134;24.708;2022-11-15T03:44:21;100084.03;;;8.23;100.00
2681;BME280;1350;42.134;24.708;2022-11-15T03:46:57;100075.19;;;7.98;100.00
2681;BME280;1350;42.134;24.708;2022-11-15T03:49:31;100071.81;;;7.93;100.00
2681;BME280;1350;42.134;24.708;2022-11-15T03:52:00;100071.25;;;7.85;100.00
2681;BME280;1350;42.134;24.708;2022-11-15T03:54:28;100066.03;;;7.84;100.00
2681;BME280;1350;42.134;24.708;2022-11-15T03:56:55;100068.56;;;7.87;100.00
2681;BME280;1350;42.134;24.708;2022-11-15T03:59:21;100068.50;;;7.88;100.00
2681;BME280;1350;42.134;24.708;2022-11-15T04:01:48;100063.38;;;7.84;100.00
2681;BME280;1350;42.134;24.708;2022-11-15T04:04:15;100058.50;;;7.72;100.00
2681;BME280;1350;42.134;24.708;2022-11-15T04:06:43;100056.97;;;7.65;100.00
2681;BME280;1350;42.134;24.708;2022-11-15T04:09:10;100057.94;;;7.62;100.00
2681;BME280;1350;42.134;24.708;2022-11-15T04:11:37;100058.06;;;7.59;100.00
2681;BME280;1350;42.134;24.708;2022-11-15T04:14:03;100054.22;;;7.68;100.00
2681;BME280;1350;42.134;24.708;2022-11-15T04:16:30;100053.50;;;7.63;100.00
2681;BME280;1350;42.134;24.708;2022-11-15T04:18:57;100044.84;;;7.85;100.00
2681;BME280;1350;42.134;24.708;2022-11-15T04:21:45;100045.53;;;7.90;100.00
2681;BME280;1350;42.134;24.708;2022-11-15T04:24:29;100040.63;;;7.80;100.00
2681;BME280;1350;42.134;24.708;2022-11-15T04:26:56;100042.41;;;7.79;100.00
2681;BME280;1350;42.134;24.708;2022-11-15T04:29:23;100038.03;;;7.78;100.00
2681;BME280;1350;42.134;24.708;2022-11-15T04:32:02;100040.00;;;7.73;100.00
2681;BME280;1350;42.134;24.708;2022-11-15T04:34:28;100034.09;;;7.65;100.00
2681;BME280;1350;42.134;24.708;2022-11-15T04:36:57;100037.03;;;7.56;100.00
2681;BME280;1350;42.134;24.708;2022-11-15T04:39:39;100039.72;;;7.55;100.00
2681;BME280;1350;42.134;24.708;2022-11-15T04:42:06;100046.94;;;7.50;100.00
2681;BME280;1350;42.134;24.708;2022-11-15T04:44:33;100047.75;;;7.52;100.00
2681;BME280;1350;42.134;24.708;2022-11-15T04:46:59;100049.00;;;7.40;100.00
2681;BME280;1350;42.134;24.708;2022-11-15T04:49:26;100046.34;;;7.40;100.00
2681;BME280;1350;42.134;24.708;2022-11-15T04:51:53;100041.94;;;7.41;100.00
2681;BME280;1350;42.134;24.708;2022-11-15T04:54:21;100043.25;;;7.54;100.00
2681;BME280;1350;42.134;24.708;2022-11-15T04:56:48;100034.19;;;7.62;100.00
2681;BME280;1350;42.134;24.708;2022-11-15T04:59:14;100039.88;;;7.76;100.00
2681;BME280;1350;42.134;24.708;2022-11-15T05:01:41;100036.00;;;7.60;100.00
2681;BME280;1350;42.134;24.708;2022-11-15T05:04:08;100040.41;;;7.60;100.00
2681;BME280;1350;42.134;24.708;2022-11-15T05:06:50;100033.72;;;7.76;100.00
2681;BME280;1350;42.134;24.708;2022-11-15T05:09:17;100033.69;;;7.77;100.00
2681;BME280;1350;42.134;24.708;2022-11-15T05:11:46;100035.19;;;7.84;100.00
2681;BME280;1350;42.134;24.708;2022-11-15T05:14:13;100036.09;;;7.83;100.00
2681;BME280;1350;42.134;24.708;2022-11-15T05:16:40;100047.44;;;7.87;100.00
2681;BME280;1350;42.134;24.708;2022-11-15T05:19:08;100039.38;;;7.65;100.00
2681;BME280;1350;42.134;24.708;2022-11-15T05:21:35;100038.66;;;7.60;100.00
2681;BME280;1350;42.134;24.708;2022-11-15T05:24:03;100033.94;;;7.70;100.00
2681;BME280;1350;42.134;24.708;2022-11-15T05:26:29;100033.94;;;7.70;100.00
2681;BME280;1350;42.134;24.708;2022-11-15T05:28:58;100031.47;;;7.65;100.00
2681;BME280;1350;42.134;24.708;2022-11-15T05:31:26;100031.34;;;7.68;100.00
2681;BME280;1350;42.134;24.708;2022-11-15T05:33:54;100033.44;;;7.59;100.00
2681;BME280;1350;42.134;24.708;2022-11-15T05:36:27;100034.34;;;7.58;100.00
2681;BME280;1350;42.134;24.708;2022-11-15T05:38:54;100037.63;;;7.64;100.00
2681;BME280;1350;42.134;24.708;2022-11-15T05:41:25;100037.72;;;7.87;100.00
2681;BME280;1350;42.134;24.708;2022-11-15T05:43:53;100044.44;;;7.97;100.00
2681;BME280;1350;42.134;24.708;2022-11-15T05:46:21;100043.13;;;8.09;100.00
2681;BME280;1350;42.134;24.708;2022-11-15T05:48:50;100040.31;;;8.13;100.00
2681;BME280;1350;42.134;24.708;2022-11-15T05:51:19;100046.47;;;8.14;100.00
2681;BME280;1350;42.134;24.708;2022-11-15T05:53:48;100043.28;;;8.04;100.00
2681;BME280;1350;42.134;24.708;2022-11-15T05:56:16;100049.31;;;8.08;100.00
2681;BME280;1350;42.134;24.708;2022-11-15T05:58:43;100060.88;;;8.05;100.00
2681;BME280;1350;42.134;24.708;2022-11-15T06:01:10;100057.84;;;8.16;100.00
2681;BME280;1350;42.134;24.708;2022-11-15T06:03:38;100054.66;;;8.32;100.00
2681;BME280;1350;42.134;24.708;2022-11-15T06:06:05;100053.59;;;8.36;100.00
2681;BME280;1350;42.134;24.708;2022-11-15T06:08:32;100059.91;;;8.57;100.00
2681;BME280;1350;42.134;24.708;2022-11-15T06:11:03;100055.56;;;8.79;100.00
2681;BME280;1350;42.134;24.708;2022-11-15T06:13:30;100052.84;;;9.04;100.00
2681;BME280;1350;42.134;24.708;2022-11-15T06:15:57;100057.41;;;9.22;100.00
2681;BME280;1350;42.134;24.708;2022-11-15T06:18:24;100057.00;;;9.54;100.00
2681;BME280;1350;42.134;24.708;2022-11-15T06:20:52;100058.47;;;10.02;100.00
2681;BME280;1350;42.134;24.708;2022-11-15T06:23:19;100051.63;;;10.39;100.00
2681;BME280;1350;42.134;24.708;2022-11-15T06:25:45;100053.78;;;10.49;100.00
2681;BME280;1350;42.134;24.708;2022-11-15T06:28:12;100054.47;;;10.54;100.00
2681;BME280;1350;42.134;24.708;2022-11-15T06:30:39;100058.84;;;10.74;100.00
2681;BME280;1350;42.134;24.708;2022-11-15T06:33:06;100052.50;;;10.78;100.00
2681;BME280;1350;42.134;24.708;2022-11-15T06:35:34;100048.56;;;10.86;100.00
2681;BME280;1350;42.134;24.708;2022-11-15T06:38:04;100050.25;;;10.87;100.00
2681;BME280;1350;42.134;24.708;2022-11-15T06:40:33;100053.72;;;10.89;100.00
2681;BME280;1350;42.134;24.708;2022-11-15T06:43:01;100052.16;;;10.85;100.00
2681;BME280;1350;42.134;24.708;2022-11-15T06:45:28;100054.41;;;10.36;100.00
2681;BME280;1350;42.134;24.708;2022-11-15T06:47:55;100061.06;;;10.64;100.00
2681;BME280;1350;42.134;24.708;2022-11-15T06:50:22;100058.56;;;10.80;100.00
2681;BME280;1350;42.134;24.708;2022-11-15T06:52:49;100063.38;;;10.90;100.00
2681;BME280;1350;42.134;24.708;2022-11-15T06:55:17;100059.81;;;10.91;100.00
2681;BME280;1350;42.134;24.708;2022-11-15T06:57:48;100061.31;;;11.15;100.00
2681;BME280;1350;42.134;24.708;2022-11-15T07:00:17;100060.19;;;11.56;100.00
2681;BME280;1350;42.134;24.708;2022-11-15T07:02:45;100051.56;;;12.06;100.00
2681;BME280;1350;42.134;24.708;2022-11-15T07:05:12;100041.78;;;12.40;99.27
2681;BME280;1350;42.134;24.708;2022-11-15T07:07:39;100052.88;;;12.48;97.13
2681;BME280;1350;42.134;24.708;2022-11-15T07:10:07;100040.94;;;12.72;97.21
2681;BME280;1350;42.134;24.708;2022-11-15T07:12:35;100049.66;;;12.59;94.72
2681;BME280;1350;42.134;24.708;2022-11-15T07:15:03;100030.47;;;12.52;97.24
2681;BME280;1350;42.134;24.708;2022-11-15T07:17:29;100034.53;;;12.59;94.99
2681;BME280;1350;42.134;24.708;2022-11-15T07:19:56;100033.78;;;13.05;94.86
2681;BME280;1350;42.134;24.708;2022-11-15T07:22:23;100031.56;;;13.29;92.47
2681;BME280;1350;42.134;24.708;2022-11-15T07:24:50;100035.09;;;13.90;89.85
2681;BME280;1350;42.134;24.708;2022-11-15T07:27:17;100037.34;;;14.27;87.06
2681;BME280;1350;42.134;24.708;2022-11-15T07:29:45;100037.22;;;14.86;82.33
2681;BME280;1350;42.134;24.708;2022-11-15T07:32:11;100029.56;;;15.22;78.17
2681;BME280;1350;42.134;24.708;2022-11-15T07:34:38;100030.63;;;15.61;75.54
2681;BME280;1350;42.134;24.708;2022-11-15T07:37:05;100029.97;;;15.84;72.18
2681;BME280;1350;42.134;24.708;2022-11-15T07:39:32;100027.03;;;16.01;70.58
2681;BME280;1350;42.134;24.708;2022-11-15T07:41:59;100030.16;;;16.07;70.05
2681;BME280;1350;42.134;24.708;2022-11-15T07:44:39;100029.22;;;16.21;69.50
2681;BME280;1350;42.134;24.708;2022-11-15T07:47:07;100031.09;;;16.45;69.40
2681;BME280;1350;42.134;24.708;2022-11-15T07:49:34;100031.75;;;16.61;68.13
2681;BME280;1350;42.134;24.708;2022-11-15T07:52:01;100030.56;;;16.78;65.58
2681;BME280;1350;42.134;24.708;2022-11-15T07:54:27;100027.75;;;17.41;63.00
2681;BME280;1350;42.134;24.708;2022-11-15T07:56:54;100018.16;;;18.09;59.93
2681;BME280;1350;42.134;24.708;2022-11-15T07:59:21;100020.53;;;18.48;58.25
2681;BME280;1350;42.134;24.708;2022-11-15T08:01:48;100020.94;;;18.99;57.23
2681;BME280;1350;42.134;24.708;2022-11-15T08:04:16;100021.91;;;19.42;55.13
2681;BME280;1350;42.134;24.708;2022-11-15T08:06:42;100020.78;;;19.55;54.60
2681;BME280;1350;42.134;24.708;2022-11-15T08:09:09;100011.38;;;19.92;52.68
2681;BME280;1350;42.134;24.708;2022-11-15T08:11:36;100015.06;;;20.12;52.12
2681;BME280;1350;42.134;24.708;2022-11-15T08:14:03;100008.06;;;20.21;51.80
2681;BME280;1350;42.134;24.708;2022-11-15T08:16:29;100009.03;;;20.81;50.84
2681;BME280;1350;42.134;24.708;2022-11-15T08:18:56;100005.06;;;21.06;49.29
2681;BME280;1350;42.134;24.708;2022-11-15T08:21:24;100000.41;;;21.17;48.92
2681;BME280;1350;42.134;24.708;2022-11-15T08:23:51;100003.53;;;21.52;48.00
2681;BME280;1350;42.134;24.708;2022-11-15T08:26:18;100003.59;;;21.91;47.29
2681;BME280;1350;42.134;24.708;2022-11-15T08:28:45;100000.88;;;22.10;46.10
2681;BME280;1350;42.134;24.708;2022-11-15T08:31:13;99999.47;;;21.96;45.96
2681;BME280;1350;42.134;24.708;2022-11-15T08:33:42;100000.75;;;22.30;45.46
2681;BME280;1350;42.134;24.708;2022-11-15T08:36:12;100001.03;;;22.37;45.31
2681;BME280;1350;42.134;24.708;2022-11-15T08:38:40;99985.94;;;22.34;44.98
2681;BME280;1350;42.134;24.708;2022-11-15T08:41:12;99992.50;;;22.32;44.80
2681;BME280;1350;42.134;24.708;2022-11-15T08:43:40;99997.91;;;22.32;45.19
2681;BME280;1350;42.134;24.708;2022-11-15T08:46:09;99988.63;;;22.34;45.11
2681;BME280;1350;42.134;24.708;2022-11-15T08:48:38;99987.69;;;22.91;44.30
2681;BME280;1350;42.134;24.708;2022-11-15T08:51:05;99991.56;;;22.79;43.63
2681;BME280;1350;42.134;24.708;2022-11-15T08:53:31;99985.31;;;22.78;43.87
2681;BME280;1350;42.134;24.708;2022-11-15T08:56:00;99984.84;;;23.29;43.59
2681;BME280;1350;42.134;24.708;2022-11-15T08:58:26;99986.38;;;23.32;43.48
2681;BME280;1350;42.134;24.708;2022-11-15T09:00:53;99971.53;;;23.63;42.90
2681;BME280;1350;42.134;24.708;2022-11-15T09:03:20;99971.25;;;24.01;42.69
2681;BME280;1350;42.134;24.708;2022-11-15T09:05:47;99966.75;;;23.92;43.08
2681;BME280;1350;42.134;24.708;2022-11-15T09:08:14;99961.78;;;23.52;42.85
2681;BME280;1350;42.134;24.708;2022-11-15T09:10:40;99963.16;;;22.65;44.86
2681;BME280;1350;42.134;24.708;2022-11-15T09:13:08;99954.81;;;22.86;44.43
2681;BME280;1350;42.134;24.708;2022-11-15T09:15:35;99950.47;;;23.02;44.37
2681;BME280;1350;42.134;24.708;2022-11-15T09:18:02;99936.13;;;23.29;44.33
2681;BME280;1350;42.134;24.708;2022-11-15T09:20:29;99933.16;;;22.95;44.29
2681;BME280;1350;42.134;24.708;2022-11-15T09:22:59;99930.41;;;22.68;45.96
2681;BME280;1350;42.134;24.708;2022-11-15T09:25:26;99927.41;;;21.97;47.94
2681;BME280;1350;42.134;24.708;2022-11-15T09:27:53;99919.09;;;22.27;48.70
2681;BME280;1350;42.134;24.708;2022-11-15T09:30:21;99914.97;;;22.88;49.35
2681;BME280;1350;42.134;24.708;2022-11-15T09:32:48;99911.09;;;22.90;47.66
2681;BME280;1350;42.134;24.708;2022-11-15T09:35:15;99899.72;;;22.60;49.41
2681;BME280;1350;42.134;24.708;2022-11-15T09:37:41;99900.69;;;22.59;49.90
2681;BME280;1350;42.134;24.708;2022-11-15T09:40:10;99894.56;;;22.01;49.85
2681;BME280;1350;42.134;24.708;2022-11-15T09:42:56;99900.63;;;22.32;49.09
2681;BME280;1350;42.134;24.708;2022-11-15T09:45:33;99898.53;;;22.16;47.84
2681;BME280;1350;42.134;24.708;2022-11-15T09:50:52;99893.81;;;21.13;52.13
2681;BME280;1350;42.134;24.708;2022-11-15T09:53:31;99889.22;;;22.38;50.24
2681;BME280;1350;42.134;24.708;2022-11-15T09:56:02;99885.94;;;23.35;49.04
2681;BME280;1350;42.134;24.708;2022-11-15T09:58:36;99888.56;;;23.44;47.12
2681;BME280;1350;42.134;24.708;2022-11-15T10:01:12;99876.34;;;22.95;47.35
2681;BME280;1350;42.134;24.708;2022-11-15T10:03:43;99876.75;;;23.27;46.51
2681;BME280;1350;42.134;24.708;2022-11-15T10:06:18;99863.97;;;23.38;47.37
2681;BME280;1350;42.134;24.708;2022-11-15T10:08:55;99863.84;;;23.12;45.80
2681;BME280;1350;42.134;24.708;2022-11-15T10:11:26;99856.03;;;22.82;47.16
2681;BME280;1350;42.134;24.708;2022-11-15T10:13:57;99858.03;;;22.89;45.95
2681;BME280;1350;42.134;24.708;2022-11-15T10:16:43;99858.44;;;23.12;46.82
2681;BME280;1350;42.134;24.708;2022-11-15T10:19:23;99848.06;;;23.52;45.24
2681;BME280;1350;42.134;24.708;2022-11-15T10:22:00;99845.94;;;22.57;45.43
2681;BME280;1350;42.134;24.708;2022-11-15T10:24:34;99844.09;;;22.48;46.03
2681;BME280;1350;42.134;24.708;2022-11-15T10:27:07;99845.38;;;22.53;46.28
2681;BME280;1350;42.134;24.708;2022-11-15T10:29:36;99838.56;;;21.17;47.30
2681;BME280;1350;42.134;24.708;2022-11-15T10:32:10;99835.66;;;20.11;49.59
2681;BME280;1350;42.134;24.708;2022-11-15T10:34:37;99840.13;;;18.86;52.95
2681;BME280;1350;42.134;24.708;2022-11-15T10:37:04;99830.28;;;19.49;52.48
2681;BME280;1350;42.134;24.708;2022-11-15T10:39:31;99826.63;;;20.52;51.15
2681;BME280;1350;42.134;24.708;2022-11-15T10:42:15;99816.88;;;21.38;49.29
2681;BME280;1350;42.134;24.708;2022-11-15T10:44:43;99808.63;;;21.39;49.19
2681;BME280;1350;42.134;24.708;2022-11-15T10:47:27;99808.50;;;21.50;48.14
2681;BME280;1350;42.134;24.708;2022-11-15T10:49:57;99803.53;;;20.19;50.60
2681;BME280;1350;42.134;24.708;2022-11-15T10:52:24;99805.94;;;20.22;50.08
2681;BME280;1350;42.134;24.708;2022-11-15T10:54:54;99797.72;;;20.54;50.25
2681;BME280;1350;42.134;24.708;2022-11-15T10:57:24;99797.78;;;20.82;50.58
2681;BME280;1350;42.134;24.708;2022-11-15T10:59:53;99797.50;;;20.95;49.49
2681;BME280;1350;42.134;24.708;2022-11-15T11:02:34;99796.00;;;20.53;49.62
2681;BME280;1350;42.134;24.708;2022-11-15T11:05:03;99791.28;;;20.45;50.02
2681;BME280;1350;42.134;24.708;2022-11-15T11:07:32;99782.47;;;20.92;49.84
2681;BME280;1350;42.134;24.708;2022-11-15T11:10:02;99775.00;;;21.34;48.90
2681;BME280;1350;42.134;24.708;2022-11-15T11:12:31;99772.88;;;21.28;48.75
2681;BME280;1350;42.134;24.708;2022-11-15T11:14:59;99764.06;;;21.07;48.82
2681;BME280;1350;42.134;24.708;2022-11-15T11:17:39;99755.78;;;20.80;49.34
2681;BME280;1350;42.134;24.708;2022-11-15T11:20:19;99765.13;;;20.85;49.72
2681;BME280;1350;42.134;24.708;2022-11-15T11:22:57;99750.25;;;20.81;49.34
2681;BME280;1350;42.134;24.708;2022-11-15T11:25:34;99751.16;;;21.10;49.87
2681;BME280;1350;42.134;24.708;2022-11-15T11:28:14;99743.97;;;21.66;48.35
2681;BME280;1350;42.134;24.708;2022-11-15T11:30:50;99740.16;;;22.06;47.45
2681;BME280;1350;42.134;24.708;2022-11-15T11:33:27;99735.22;;;20.69;48.36
2681;BME280;1350;42.134;24.708;2022-11-15T11:36:06;99730.69;;;20.89;49.22
2681;BME280;1350;42.134;24.708;2022-11-15T11:38:44;99724.47;;;20.98;49.14
2681;BME280;1350;42.134;24.708;2022-11-15T11:41:24;99723.31;;;21.38;47.81
2681;BME280;1350;42.134;24.708;2022-11-15T11:44:07;99720.28;;;19.46;50.41
2681;BME280;1350;42.134;24.708;2022-11-15T11:46:48;99718.25;;;19.99;50.59
2681;BME280;1350;42.134;24.708;2022-11-15T11:49:23;99717.03;;;20.71;49.53
2681;BME280;1350;42.134;24.708;2022-11-15T11:51:54;99708.53;;;21.23;48.75
2681;BME280;1350;42.134;24.708;2022-11-15T11:54:31;99714.25;;;21.66;47.23
2681;BME280;1350;42.134;24.708;2022-11-15T11:57:03;99705.47;;;21.74;46.99
2681;BME280;1350;42.134;24.708;2022-11-15T11:59:37;99702.69;;;21.37;47.09
2681;BME280;1350;42.134;24.708;2022-11-15T12:02:14;99703.28;;;20.74;48.02
2681;BME280;1350;42.134;24.708;2022-11-15T12:04:49;99701.88;;;20.70;48.45
2681;BME280;1350;42.134;24.708;2022-11-15T12:07:20;99690.09;;;19.43;50.74
2681;BME280;1350;42.134;24.708;2022-11-15T12:09:53;99688.81;;;19.47;51.09
2681;BME280;1350;42.134;24.708;2022-11-15T12:12:29;99685.03;;;18.88;52.36
2681;BME280;1350;42.134;24.708;2022-11-15T12:15:01;99681.97;;;19.33;51.64
2681;BME280;1350;42.134;24.708;2022-11-15T12:17:30;99678.94;;;19.47;51.62
2681;BME280;1350;42.134;24.708;2022-11-15T12:20:01;99666.63;;;19.84;50.82
2681;BME280;1350;42.134;24.708;2022-11-15T12:22:36;99667.91;;;19.09;52.03
2681;BME280;1350;42.134;24.708;2022-11-15T12:25:08;99662.06;;;18.63;53.31
2681;BME280;1350;42.134;24.708;2022-11-15T12:27:44;99662.59;;;18.46;54.00
2681;BME280;1350;42.134;24.708;2022-11-15T12:30:13;99660.69;;;18.26;54.71
2681;BME280;1350;42.134;24.708;2022-11-15T12:32:50;99659.06;;;18.45;54.06
2681;BME280;1350;42.134;24.708;2022-11-15T12:35:27;99655.66;;;18.32;55.37
2681;BME280;1350;42.134;24.708;2022-11-15T12:37:55;99652.28;;;18.08;55.82
2681;BME280;1350;42.134;24.708;2022-11-15T12:40:33;99648.53;;;18.11;56.21
2681;BME280;1350;42.134;24.708;2022-11-15T12:46:19;99651.69;;;17.17;59.59
2681;BME280;1350;42.134;24.708;2022-11-15T12:48:55;99647.88;;;17.54;58.62
2681;BME280;1350;42.134;24.708;2022-11-15T12:55:00;99636.13;;;17.22;61.39
2681;BME280;1350;42.134;24.708;2022-11-15T12:57:40;99637.00;;;17.55;60.62
2681;BME280;1350;42.134;24.708;2022-11-15T13:03:28;99629.69;;;16.44;65.16
2681;BME280;1350;42.134;24.708;2022-11-15T13:06:05;99620.56;;;16.23;68.31
2681;BME280;1350;42.134;24.708;2022-11-15T13:08:48;99619.22;;;15.94;70.92
2681;BME280;1350;42.134;24.708;2022-11-15T13:11:44;99621.59;;;16.09;71.16
2681;BME280;1350;42.134;24.708;2022-11-15T13:14:46;99618.53;;;16.26;71.35
2681;BME280;1350;42.134;24.708;2022-11-15T13:17:35;99604.34;;;16.60;68.80
2681;BME280;1350;42.134;24.708;2022-11-15T13:20:18;99607.91;;;16.72;68.34
2681;BME280;1350;42.134;24.708;2022-11-15T13:22:47;99609.16;;;17.01;67.02
2681;BME280;1350;42.134;24.708;2022-11-15T13:25:26;99609.34;;;16.41;70.80
2681;BME280;1350;42.134;24.708;2022-11-15T13:27:54;99602.97;;;16.31;73.27
2681;BME280;1350;42.134;24.708;2022-11-15T13:30:24;99598.00;;;16.03;76.67
2681;BME280;1350;42.134;24.708;2022-11-15T13:32:52;99592.91;;;15.88;76.34
2681;BME280;1350;42.134;24.708;2022-11-15T13:35:31;99600.25;;;15.61;78.86
2681;BME280;1350;42.134;24.708;2022-11-15T13:38:04;99596.75;;;15.60;80.07
2681;BME280;1350;42.134;24.708;2022-11-15T13:40:36;99602.00;;;15.49;80.69
2681;BME280;1350;42.134;24.708;2022-11-15T13:43:23;99612.38;;;15.16;83.17